sensor_id;sensor_type;location;lat;lon;timestamp;temperature;humidity
10572;DHT22;5334;48.928;12.704;2022-12-16T00:01:54;0.40;99.90
10572;DHT22;5334;48.928;12.704;2022-12-16T00:04:20;0.40;99.90
10572;DHT22;5334;48.928;12.704;2022-12-16T00:06:46;0.40;99.90
10572;DHT22;5334;48.928;12.704;2022-12-16T00:09:11;0.40;99.90
10572;DHT22;5334;48.928;12.704;2022-12-16T00:11:37;0.40;99.90
10572;DHT22;5334;48.928;12.704;2022-12-16T00:14:03;0.40;99.90
10572;DHT22;5334;48.928;12.704;2022-12-16T00:16:29;0.40;99.90
10572;DHT22;5334;48.928;12.704;2022-12-16T00:18:55;0.40;99.90
10572;DHT22;5334;48.928;12.704;2022-12-16T00:21:20;0.40;99.90
10572;DHT22;5334;48.928;12.704;2022-12-16T00:23:46;0.40;99.90
10572;DHT22;5334;48.928;12.704;2022-12-16T00:26:13;0.40;99.90
10572;DHT22;5334;48.928;12.704;2022-12-16T00:28:39;0.40;99.90
10572;DHT22;5334;48.928;12.704;2022-12-16T00:31:05;0.40;99.90
10572;DHT22;5334;48.928;12.704;2022-12-16T00:33:31;0.40;99.90
10572;DHT22;5334;48.928;12.704;2022-12-16T00:35:57;0.40;99.90
10572;DHT22;5334;48.928;12.704;2022-12-16T00:38:24;0.40;99.90
10572;DHT22;5334;48.928;12.704;2022-12-16T00:40:50;0.40;99.90
10572;DHT22;5334;48.928;12.704;2022-12-16T00:43:16;0.40;99.90
10572;DHT22;5334;48.928;12.704;2022-12-16T00:45:42;0.40;99.90
10572;DHT22;5334;48.928;12.704;2022-12-16T00:48:08;0.40;99.90
10572;DHT22;5334;48.928;12.704;2022-12-16T00:50:34;0.40;99.90
10572;DHT22;5334;48.928;12.704;2022-12-16T00:53:00;0.40;99.90
10572;DHT22;5334;48.928;12.704;2022-12-16T00:55:26;0.30;99.90
10572;DHT22;5334;48.928;12.704;2022-12-16T00:57:51;0.30;99.90
10572;DHT22;5334;48.928;12.704;2022-12-16T01:00:17;0.30;99.90
10572;DHT22;5334;48.928;12.704;2022-12-16T01:02:47;0.30;99.90
10572;DHT22;5334;48.928;12.704;2022-12-16T01:05:15;0.30;99.90
10572;DHT22;5334;48.928;12.704;2022-12-16T01:07:41;0.30;99.90
10572;DHT22;5334;48.928;12.704;2022-12-16T01:10:07;0.30;99.90
10572;DHT22;5334;48.928;12.704;2022-12-16T01:12:34;0.30;99.90
10572;DHT22;5334;48.928;12.704;2022-12-16T01:15:00;0.30;99.90
10572;DHT22;5334;48.928;12.704;2022-12-16T01:17:26;0.30;99.90
10572;DHT22;5334;48.928;12.704;2022-12-16T01:19:52;0.30;99.90
10572;DHT22;5334;48.928;12.704;2022-12-16T01:22:19;0.30;99.90
10572;DHT22;5334;48.928;12.704;2022-12-16T01:24:45;0.30;99.90
10572;DHT22;5334;48.928;12.704;2022-12-16T01:27:11;0.30;99.90
10572;DHT22;5334;48.928;12.704;2022-12-16T01:29:37;0.40;99.90
10572;DHT22;5334;48.928;12.704;2022-12-16T01:32:03;0.30;99.90
10572;DHT22;5334;48.928;12.704;2022-12-16T01:34:29;0.30;99.90
10572;DHT22;5334;48.928;12.704;2022-12-16T01:36:54;0.30;99.90
10572;DHT22;5334;48.928;12.704;2022-12-16T01:39:20;0.30;99.90
10572;DHT22;5334;48.928;12.704;2022-12-16T01:41:46;0.30;99.90
10572;DHT22;5334;48.928;12.704;2022-12-16T01:44:32;0.30;99.90
10572;DHT22;5334;48.928;12.704;2022-12-16T01:47:02;0.30;99.90
10572;DHT22;5334;48.928;12.704;2022-12-16T01:52:24;0.40;99.90
10572;DHT22;5334;48.928;12.704;2022-12-16T01:54:57;0.40;99.90
10572;DHT22;5334;48.928;12.704;2022-12-16T01:57:30;0.40;99.90
10572;DHT22;5334;48.928;12.704;2022-12-16T01:59:59;0.40;99.90
10572;DHT22;5334;48.928;12.704;2022-12-16T02:02:25;0.40;99.90
10572;DHT22;5334;48.928;12.704;2022-12-16T02:04:51;0.40;99.90
10572;DHT22;5334;48.928;12.704;2022-12-16T02:07:37;0.40;99.90
10572;DHT22;5334;48.928;12.704;2022-12-16T02:10:03;0.30;99.90
10572;DHT22;5334;48.928;12.704;2022-12-16T02:12:58;0.30;99.90
10572;DHT22;5334;48.928;12.704;2022-12-16T02:15:59;0.30;99.90
10572;DHT22;5334;48.928;12.704;2022-12-16T02:18:59;0.20;99.90
10572;DHT22;5334;48.928;12.704;2022-12-16T02:21:46;0.10;99.90
10572;DHT22;5334;48.928;12.704;2022-12-16T02:32:19;0.00;99.90
10572;DHT22;5334;48.928;12.704;2022-12-16T02:46:04;-0.10;99.90
10572;DHT22;5334;48.928;12.704;2022-12-16T02:48:31;-0.10;99.90
10572;DHT22;5334;48.928;12.704;2022-12-16T02:50:56;-0.10;99.90
10572;DHT22;5334;48.928;12.704;2022-12-16T02:53:23;-0.10;99.90
10572;DHT22;5334;48.928;12.704;2022-12-16T02:55:54;-0.10;99.90
10572;DHT22;5334;48.928;12.704;2022-12-16T02:58:49;-0.10;99.90
10572;DHT22;5334;48.928;12.704;2022-12-16T03:04:26;-0.20;99.90
10572;DHT22;5334;48.928;12.704;2022-12-16T03:06:56;-0.30;99.90
10572;DHT22;5334;48.928;12.704;2022-12-16T03:09:28;-0.40;99.90
10572;DHT22;5334;48.928;12.704;2022-12-16T03:11:58;-0.30;99.90
10572;DHT22;5334;48.928;12.704;2022-12-16T03:14:30;-0.30;99.90
10572;DHT22;5334;48.928;12.704;2022-12-16T03:16:57;-0.30;99.90
10572;DHT22;5334;48.928;12.704;2022-12-16T03:19:23;-0.30;99.90
10572;DHT22;5334;48.928;12.704;2022-12-16T03:24:16;-0.30;99.90
10572;DHT22;5334;48.928;12.704;2022-12-16T03:26:50;-0.20;99.90
10572;DHT22;5334;48.928;12.704;2022-12-16T03:29:41;-0.20;99.90
10572;DHT22;5334;48.928;12.704;2022-12-16T03:32:21;-0.20;99.90
10572;DHT22;5334;48.928;12.704;2022-12-16T03:37:35;-0.20;99.90
10572;DHT22;5334;48.928;12.704;2022-12-16T03:40:04;-0.20;99.90
10572;DHT22;5334;48.928;12.704;2022-12-16T03:42:31;-0.20;99.90
10572;DHT22;5334;48.928;12.704;2022-12-16T03:44:57;-0.20;99.90
10572;DHT22;5334;48.928;12.704;2022-12-16T03:47:26;-0.20;99.90
10572;DHT22;5334;48.928;12.704;2022-12-16T03:49:52;-0.20;99.90
10572;DHT22;5334;48.928;12.704;2022-12-16T03:52:18;-0.20;99.90
10572;DHT22;5334;48.928;12.704;2022-12-16T03:54:43;-0.20;99.90
10572;DHT22;5334;48.928;12.704;2022-12-16T03:57:09;-0.30;99.90
10572;DHT22;5334;48.928;12.704;2022-12-16T03:59:35;-0.30;99.90
10572;DHT22;5334;48.928;12.704;2022-12-16T04:02:00;-0.30;99.90
10572;DHT22;5334;48.928;12.704;2022-12-16T04:04:26;-0.30;99.90
10572;DHT22;5334;48.928;12.704;2022-12-16T04:06:52;-0.30;99.90
10572;DHT22;5334;48.928;12.704;2022-12-16T04:09:36;-0.30;99.90
10572;DHT22;5334;48.928;12.704;2022-12-16T04:12:02;-0.40;99.90
10572;DHT22;5334;48.928;12.704;2022-12-16T04:14:46;-0.40;99.90
10572;DHT22;5334;48.928;12.704;2022-12-16T04:17:30;-0.40;99.90
10572;DHT22;5334;48.928;12.704;2022-12-16T04:20:15;-0.40;99.90
10572;DHT22;5334;48.928;12.704;2022-12-16T04:23:01;-0.40;99.90
10572;DHT22;5334;48.928;12.704;2022-12-16T04:25:45;-0.40;99.90
10572;DHT22;5334;48.928;12.704;2022-12-16T04:28:11;-0.30;99.90
10572;DHT22;5334;48.928;12.704;2022-12-16T04:30:37;-0.30;99.90
10572;DHT22;5334;48.928;12.704;2022-12-16T04:35:46;-0.40;99.90
10572;DHT22;5334;48.928;12.704;2022-12-16T04:38:31;-0.50;99.90
10572;DHT22;5334;48.928;12.704;2022-12-16T04:41:16;-0.60;99.90
10572;DHT22;5334;48.928;12.704;2022-12-16T04:44:00;-0.60;99.90
10572;DHT22;5334;48.928;12.704;2022-12-16T04:46:44;-0.60;99.90
10572;DHT22;5334;48.928;12.704;2022-12-16T04:49:29;-0.60;99.90
10572;DHT22;5334;48.928;12.704;2022-12-16T04:52:15;-0.50;99.90
10572;DHT22;5334;48.928;12.704;2022-12-16T04:55:01;-0.50;99.90
10572;DHT22;5334;48.928;12.704;2022-12-16T04:57:51;-0.60;99.90
10572;DHT22;5334;48.928;12.704;2022-12-16T05:00:35;-0.60;99.90
10572;DHT22;5334;48.928;12.704;2022-12-16T05:03:20;-0.60;99.90
10572;DHT22;5334;48.928;12.704;2022-12-16T05:06:04;-0.60;99.90
10572;DHT22;5334;48.928;12.704;2022-12-16T05:08:48;-0.70;99.90
10572;DHT22;5334;48.928;12.704;2022-12-16T05:11:32;-0.70;99.90
10572;DHT22;5334;48.928;12.704;2022-12-16T05:14:16;-0.70;99.90
10572;DHT22;5334;48.928;12.704;2022-12-16T05:17:00;-0.70;99.90
10572;DHT22;5334;48.928;12.704;2022-12-16T05:19:44;-0.80;99.90
10572;DHT22;5334;48.928;12.704;2022-12-16T05:22:36;-0.70;99.90
10572;DHT22;5334;48.928;12.704;2022-12-16T05:25:20;-0.70;99.90
10572;DHT22;5334;48.928;12.704;2022-12-16T05:28:12;-0.70;99.90
10572;DHT22;5334;48.928;12.704;2022-12-16T05:30:57;-0.80;99.90
10572;DHT22;5334;48.928;12.704;2022-12-16T05:33:41;-0.80;99.90
10572;DHT22;5334;48.928;12.704;2022-12-16T05:36:25;-0.80;99.90
10572;DHT22;5334;48.928;12.704;2022-12-16T05:39:09;-0.80;99.90
10572;DHT22;5334;48.928;12.704;2022-12-16T05:41:54;-0.70;99.90
10572;DHT22;5334;48.928;12.704;2022-12-16T05:44:39;-0.70;99.90
10572;DHT22;5334;48.928;12.704;2022-12-16T05:47:23;-0.70;99.90
10572;DHT22;5334;48.928;12.704;2022-12-16T05:50:07;-0.70;99.90
10572;DHT22;5334;48.928;12.704;2022-12-16T05:52:54;-0.70;99.90
10572;DHT22;5334;48.928;12.704;2022-12-16T05:55:38;-0.70;99.90
10572;DHT22;5334;48.928;12.704;2022-12-16T05:58:24;-0.70;99.90
10572;DHT22;5334;48.928;12.704;2022-12-16T06:01:09;-0.60;99.90
10572;DHT22;5334;48.928;12.704;2022-12-16T06:03:53;-0.60;99.90
10572;DHT22;5334;48.928;12.704;2022-12-16T06:06:37;-0.60;99.90
10572;DHT22;5334;48.928;12.704;2022-12-16T06:09:21;-0.60;99.90
10572;DHT22;5334;48.928;12.704;2022-12-16T06:12:06;-0.50;99.90
10572;DHT22;5334;48.928;12.704;2022-12-16T06:14:51;-0.50;99.90
10572;DHT22;5334;48.928;12.704;2022-12-16T06:17:51;-0.50;99.90
10572;DHT22;5334;48.928;12.704;2022-12-16T06:20:36;-0.50;99.90
10572;DHT22;5334;48.928;12.704;2022-12-16T06:23:20;-0.60;99.90
10572;DHT22;5334;48.928;12.704;2022-12-16T06:26:04;-0.60;99.90
10572;DHT22;5334;48.928;12.704;2022-12-16T06:28:49;-0.70;99.90
10572;DHT22;5334;48.928;12.704;2022-12-16T06:31:33;-0.80;99.90
10572;DHT22;5334;48.928;12.704;2022-12-16T06:34:17;-0.80;99.90
10572;DHT22;5334;48.928;12.704;2022-12-16T06:37:01;-0.80;99.90
10572;DHT22;5334;48.928;12.704;2022-12-16T06:39:45;-0.80;99.90
10572;DHT22;5334;48.928;12.704;2022-12-16T06:42:29;-0.80;99.90
10572;DHT22;5334;48.928;12.704;2022-12-16T06:45:13;-0.70;99.90
10572;DHT22;5334;48.928;12.704;2022-12-16T06:47:57;-0.70;99.90
10572;DHT22;5334;48.928;12.704;2022-12-16T06:50:41;-0.70;99.90
10572;DHT22;5334;48.928;12.704;2022-12-16T06:53:25;-0.70;99.90
10572;DHT22;5334;48.928;12.704;2022-12-16T06:56:10;-0.70;99.90
10572;DHT22;5334;48.928;12.704;2022-12-16T06:58:54;-0.70;99.90
10572;DHT22;5334;48.928;12.704;2022-12-16T07:01:38;-0.70;99.90
10572;DHT22;5334;48.928;12.704;2022-12-16T07:04:22;-0.60;99.90
10572;DHT22;5334;48.928;12.704;2022-12-16T07:07:06;-0.60;99.90
10572;DHT22;5334;48.928;12.704;2022-12-16T07:09:50;-0.70;99.90
10572;DHT22;5334;48.928;12.704;2022-12-16T07:12:35;-0.70;99.90
10572;DHT22;5334;48.928;12.704;2022-12-16T07:15:20;-0.70;99.90
10572;DHT22;5334;48.928;12.704;2022-12-16T07:18:05;-0.70;99.90
10572;DHT22;5334;48.928;12.704;2022-12-16T07:20:49;-0.70;99.90
10572;DHT22;5334;48.928;12.704;2022-12-16T07:23:33;-0.70;99.90
10572;DHT22;5334;48.928;12.704;2022-12-16T07:26:17;-0.70;99.90
10572;DHT22;5334;48.928;12.704;2022-12-16T07:29:01;-0.80;99.90
10572;DHT22;5334;48.928;12.704;2022-12-16T07:31:45;-0.80;99.90
10572;DHT22;5334;48.928;12.704;2022-12-16T07:34:29;-0.90;99.90
10572;DHT22;5334;48.928;12.704;2022-12-16T07:37:14;-0.90;99.90
10572;DHT22;5334;48.928;12.704;2022-12-16T07:39:58;-1.00;99.90
10572;DHT22;5334;48.928;12.704;2022-12-16T07:42:45;-1.00;99.90
10572;DHT22;5334;48.928;12.704;2022-12-16T07:45:29;-0.90;99.90
10572;DHT22;5334;48.928;12.704;2022-12-16T07:48:13;-0.90;99.90
10572;DHT22;5334;48.928;12.704;2022-12-16T07:50:58;-0.90;99.90
10572;DHT22;5334;48.928;12.704;2022-12-16T07:53:42;-0.90;99.90
10572;DHT22;5334;48.928;12.704;2022-12-16T07:56:26;-0.90;99.90
10572;DHT22;5334;48.928;12.704;2022-12-16T07:59:10;-0.90;99.90
10572;DHT22;5334;48.928;12.704;2022-12-16T08:01:54;-0.90;99.90
10572;DHT22;5334;48.928;12.704;2022-12-16T08:04:38;-0.80;99.90
10572;DHT22;5334;48.928;12.704;2022-12-16T08:07:22;-0.80;99.90
10572;DHT22;5334;48.928;12.704;2022-12-16T08:10:06;-0.70;99.90
10572;DHT22;5334;48.928;12.704;2022-12-16T08:12:50;-0.70;99.90
10572;DHT22;5334;48.928;12.704;2022-12-16T08:15:34;-0.70;99.90
10572;DHT22;5334;48.928;12.704;2022-12-16T08:18:18;-0.70;99.90
10572;DHT22;5334;48.928;12.704;2022-12-16T08:21:02;-0.70;99.90
10572;DHT22;5334;48.928;12.704;2022-12-16T08:23:46;-0.70;99.90
10572;DHT22;5334;48.928;12.704;2022-12-16T08:26:47;-0.60;99.90
10572;DHT22;5334;48.928;12.704;2022-12-16T08:29:31;-0.60;99.90
10572;DHT22;5334;48.928;12.704;2022-12-16T08:32:16;-0.50;99.90
10572;DHT22;5334;48.928;12.704;2022-12-16T08:35:00;-0.50;99.90
10572;DHT22;5334;48.928;12.704;2022-12-16T08:37:45;-0.40;99.90
10572;DHT22;5334;48.928;12.704;2022-12-16T08:40:29;-0.30;99.90
10572;DHT22;5334;48.928;12.704;2022-12-16T08:43:13;-0.20;99.90
10572;DHT22;5334;48.928;12.704;2022-12-16T08:45:58;-0.20;99.90
10572;DHT22;5334;48.928;12.704;2022-12-16T08:48:42;-0.10;99.90
10572;DHT22;5334;48.928;12.704;2022-12-16T08:51:26;0.00;99.90
10572;DHT22;5334;48.928;12.704;2022-12-16T08:54:10;0.00;99.90
10572;DHT22;5334;48.928;12.704;2022-12-16T08:56:55;0.00;99.90
10572;DHT22;5334;48.928;12.704;2022-12-16T08:59:50;0.10;99.90
10572;DHT22;5334;48.928;12.704;2022-12-16T09:02:34;0.20;99.90
10572;DHT22;5334;48.928;12.704;2022-12-16T09:05:18;0.30;99.90
10572;DHT22;5334;48.928;12.704;2022-12-16T09:08:03;0.30;99.90
10572;DHT22;5334;48.928;12.704;2022-12-16T09:10:48;0.40;99.90
10572;DHT22;5334;48.928;12.704;2022-12-16T09:13:32;0.40;99.90
10572;DHT22;5334;48.928;12.704;2022-12-16T09:16:16;0.40;99.90
10572;DHT22;5334;48.928;12.704;2022-12-16T09:19:00;0.40;99.90
10572;DHT22;5334;48.928;12.704;2022-12-16T09:21:44;0.50;99.90
10572;DHT22;5334;48.928;12.704;2022-12-16T09:24:29;0.40;99.90
10572;DHT22;5334;48.928;12.704;2022-12-16T09:27:13;0.40;99.90
10572;DHT22;5334;48.928;12.704;2022-12-16T09:29:57;0.50;99.90
10572;DHT22;5334;48.928;12.704;2022-12-16T09:32:44;0.50;99.90
10572;DHT22;5334;48.928;12.704;2022-12-16T09:35:30;0.40;99.90
10572;DHT22;5334;48.928;12.704;2022-12-16T09:38:14;0.40;99.90
10572;DHT22;5334;48.928;12.704;2022-12-16T09:41:22;0.20;99.90
10572;DHT22;5334;48.928;12.704;2022-12-16T09:44:42;0.10;99.90
10572;DHT22;5334;48.928;12.704;2022-12-16T09:47:33;-0.10;99.90
10572;DHT22;5334;48.928;12.704;2022-12-16T09:50:25;-0.20;99.90
10572;DHT22;5334;48.928;12.704;2022-12-16T09:53:13;0.00;99.90
10572;DHT22;5334;48.928;12.704;2022-12-16T09:56:00;0.00;99.90
10572;DHT22;5334;48.928;12.704;2022-12-16T09:58:54;0.00;99.90
10572;DHT22;5334;48.928;12.704;2022-12-16T10:01:40;0.00;99.90
10572;DHT22;5334;48.928;12.704;2022-12-16T10:04:25;-0.10;99.90
10572;DHT22;5334;48.928;12.704;2022-12-16T10:07:17;-0.20;99.90
10572;DHT22;5334;48.928;12.704;2022-12-16T10:20:13;0.10;99.90
10572;DHT22;5334;48.928;12.704;2022-12-16T10:25:47;0.40;99.90
10572;DHT22;5334;48.928;12.704;2022-12-16T10:29:03;0.60;99.90
10572;DHT22;5334;48.928;12.704;2022-12-16T10:31:49;0.60;99.90
10572;DHT22;5334;48.928;12.704;2022-12-16T10:34:34;0.60;99.90
10572;DHT22;5334;48.928;12.704;2022-12-16T10:37:32;0.50;99.90
10572;DHT22;5334;48.928;12.704;2022-12-16T10:40:20;0.40;99.90
10572;DHT22;5334;48.928;12.704;2022-12-16T10:43:37;0.30;99.90
10572;DHT22;5334;48.928;12.704;2022-12-16T10:46:25;0.40;99.90
10572;DHT22;5334;48.928;12.704;2022-12-16T10:49:13;0.40;99.90
10572;DHT22;5334;48.928;12.704;2022-12-16T10:51:58;0.30;99.90
10572;DHT22;5334;48.928;12.704;2022-12-16T10:54:49;0.00;99.90
10572;DHT22;5334;48.928;12.704;2022-12-16T11:00:51;-0.20;99.90
10572;DHT22;5334;48.928;12.704;2022-12-16T11:03:39;-0.10;99.90
10572;DHT22;5334;48.928;12.704;2022-12-16T11:06:37;0.00;99.90
10572;DHT22;5334;48.928;12.704;2022-12-16T11:09:30;0.00;99.90
10572;DHT22;5334;48.928;12.704;2022-12-16T11:12:28;0.00;99.90
10572;DHT22;5334;48.928;12.704;2022-12-16T11:18:12;0.00;99.90
10572;DHT22;5334;48.928;12.704;2022-12-16T11:21:17;0.10;99.90
10572;DHT22;5334;48.928;12.704;2022-12-16T11:24:19;0.30;99.90
10572;DHT22;5334;48.928;12.704;2022-12-16T11:27:26;0.30;99.90
10572;DHT22;5334;48.928;12.704;2022-12-16T11:32:59;0.50;99.90
10572;DHT22;5334;48.928;12.704;2022-12-16T11:35:47;0.80;99.90
10572;DHT22;5334;48.928;12.704;2022-12-16T11:38:45;0.90;99.90
10572;DHT22;5334;48.928;12.704;2022-12-16T11:41:51;1.00;99.90
10572;DHT22;5334;48.928;12.704;2022-12-16T11:44:39;1.20;99.90
10572;DHT22;5334;48.928;12.704;2022-12-16T11:47:35;1.30;99.90
10572;DHT22;5334;48.928;12.704;2022-12-16T11:50:23;1.40;99.90
10572;DHT22;5334;48.928;12.704;2022-12-16T11:53:30;1.40;99.90
10572;DHT22;5334;48.928;12.704;2022-12-16T11:56:21;1.30;99.90
10572;DHT22;5334;48.928;12.704;2022-12-16T11:59:15;1.30;99.90
10572;DHT22;5334;48.928;12.704;2022-12-16T12:02:07;1.00;99.90
10572;DHT22;5334;48.928;12.704;2022-12-16T12:04:56;0.80;99.90
10572;DHT22;5334;48.928;12.704;2022-12-16T12:16:30;0.90;99.90
10572;DHT22;5334;48.928;12.704;2022-12-16T12:19:20;0.90;99.90
10572;DHT22;5334;48.928;12.704;2022-12-16T12:22:11;0.90;99.90
10572;DHT22;5334;48.928;12.704;2022-12-16T12:28:34;0.70;99.90
10572;DHT22;5334;48.928;12.704;2022-12-16T12:37:27;0.50;99.90
10572;DHT22;5334;48.928;12.704;2022-12-16T12:43:47;0.40;99.90
10572;DHT22;5334;48.928;12.704;2022-12-16T12:56:14;0.40;99.90
10572;DHT22;5334;48.928;12.704;2022-12-16T12:59:03;0.30;99.90
10572;DHT22;5334;48.928;12.704;2022-12-16T13:01:52;0.20;99.90
10572;DHT22;5334;48.928;12.704;2022-12-16T13:04:37;0.00;99.90
10572;DHT22;5334;48.928;12.704;2022-12-16T13:07:22;-0.20;99.90
10572;DHT22;5334;48.928;12.704;2022-12-16T13:10:34;-0.20;99.90
10572;DHT22;5334;48.928;12.704;2022-12-16T13:13:33;-0.20;99.90
10572;DHT22;5334;48.928;12.704;2022-12-16T13:22:45;-0.20;99.90
10572;DHT22;5334;48.928;12.704;2022-12-16T13:25:39;-0.20;99.90
10572;DHT22;5334;48.928;12.704;2022-12-16T13:28:31;-0.10;99.90
10572;DHT22;5334;48.928;12.704;2022-12-16T13:31:17;0.00;99.90
10572;DHT22;5334;48.928;12.704;2022-12-16T13:34:18;0.00;99.90
10572;DHT22;5334;48.928;12.704;2022-12-16T13:37:05;0.10;99.90
10572;DHT22;5334;48.928;12.704;2022-12-16T13:40:04;0.10;99.90
10572;DHT22;5334;48.928;12.704;2022-12-16T13:42:51;0.10;99.90
10572;DHT22;5334;48.928;12.704;2022-12-16T13:48:47;0.10;99.90
10572;DHT22;5334;48.928;12.704;2022-12-16T13:54:46;-0.10;99.90
10572;DHT22;5334;48.928;12.704;2022-12-16T13:57:40;-0.20;99.90
10572;DHT22;5334;48.928;12.704;2022-12-16T14:00:26;-0.20;99.90
10572;DHT22;5334;48.928;12.704;2022-12-16T14:03:19;-0.20;99.90
10572;DHT22;5334;48.928;12.704;2022-12-16T14:06:09;-0.20;99.90
10572;DHT22;5334;48.928;12.704;2022-12-16T14:09:00;-0.10;99.90
10572;DHT22;5334;48.928;12.704;2022-12-16T14:12:54;-0.10;99.90
10572;DHT22;5334;48.928;12.704;2022-12-16T14:15:24;0.00;99.90
10572;DHT22;5334;48.928;12.704;2022-12-16T14:21:46;-0.10;99.90
10572;DHT22;5334;48.928;12.704;2022-12-16T14:24:33;-0.10;99.90
10572;DHT22;5334;48.928;12.704;2022-12-16T14:27:20;-0.20;99.90
10572;DHT22;5334;48.928;12.704;2022-12-16T14:33:14;-0.20;99.90
10572;DHT22;5334;48.928;12.704;2022-12-16T14:35:59;-0.20;99.90
10572;DHT22;5334;48.928;12.704;2022-12-16T14:38:47;-0.10;99.90
10572;DHT22;5334;48.928;12.704;2022-12-16T14:41:32;-0.10;99.90
10572;DHT22;5334;48.928;12.704;2022-12-16T14:44:21;-0.10;99.90
10572;DHT22;5334;48.928;12.704;2022-12-16T14:47:15;-0.10;99.90
10572;DHT22;5334;48.928;12.704;2022-12-16T14:50:00;-0.10;99.90
10572;DHT22;5334;48.928;12.704;2022-12-16T14:56:15;-0.10;99.90
10572;DHT22;5334;48.928;12.704;2022-12-16T14:59:11;-0.10;99.90
10572;DHT22;5334;48.928;12.704;2022-12-16T15:01:56;-0.10;99.90
10572;DHT22;5334;48.928;12.704;2022-12-16T15:04:42;-0.10;99.90
10572;DHT22;5334;48.928;12.704;2022-12-16T15:07:32;-0.20;99.90
10572;DHT22;5334;48.928;12.704;2022-12-16T15:10:18;-0.20;99.90
10572;DHT22;5334;48.928;12.704;2022-12-16T15:13:03;-0.30;99.90
10572;DHT22;5334;48.928;12.704;2022-12-16T15:15:50;-0.30;99.90
10572;DHT22;5334;48.928;12.704;2022-12-16T15:18:38;-0.30;99.90
10572;DHT22;5334;48.928;12.704;2022-12-16T15:21:24;-0.30;99.90
10572;DHT22;5334;48.928;12.704;2022-12-16T15:24:14;-0.30;99.90
10572;DHT22;5334;48.928;12.704;2022-12-16T15:27:36;-0.40;99.90
10572;DHT22;5334;48.928;12.704;2022-12-16T15:30:44;-0.40;99.90
10572;DHT22;5334;48.928;12.704;2022-12-16T15:33:34;-0.40;99.90
10572;DHT22;5334;48.928;12.704;2022-12-16T15:36:26;-0.50;99.90
10572;DHT22;5334;48.928;12.704;2022-12-16T15:39:33;-0.50;99.90
10572;DHT22;5334;48.928;12.704;2022-12-16T15:45:31;-0.50;99.90
10572;DHT22;5334;48.928;12.704;2022-12-16T15:48:34;-0.60;99.90
10572;DHT22;5334;48.928;12.704;2022-12-16T15:51:29;-0.60;99.90
10572;DHT22;5334;48.928;12.704;2022-12-16T15:54:21;-0.60;99.90
10572;DHT22;5334;48.928;12.704;2022-12-16T15:57:53;-0.60;99.90
10572;DHT22;5334;48.928;12.704;2022-12-16T16:00:38;-0.60;99.90
10572;DHT22;5334;48.928;12.704;2022-12-16T16:03:26;-0.60;99.90
10572;DHT22;5334;48.928;12.704;2022-12-16T16:06:24;-0.60;99.90
10572;DHT22;5334;48.928;12.704;2022-12-16T16:09:13;-0.60;99.90
10572;DHT22;5334;48.928;12.704;2022-12-16T16:11:58;-0.60;99.90
10572;DHT22;5334;48.928;12.704;2022-12-16T16:14:42;-0.60;99.90
10572;DHT22;5334;48.928;12.704;2022-12-16T16:17:26;-0.70;99.90
10572;DHT22;5334;48.928;12.704;2022-12-16T16:20:16;-0.70;99.90
10572;DHT22;5334;48.928;12.704;2022-12-16T16:23:00;-0.70;99.90
10572;DHT22;5334;48.928;12.704;2022-12-16T16:25:46;-0.70;99.90
10572;DHT22;5334;48.928;12.704;2022-12-16T16:28:31;-0.70;99.90
10572;DHT22;5334;48.928;12.704;2022-12-16T16:31:16;-0.70;99.90
10572;DHT22;5334;48.928;12.704;2022-12-16T16:34:00;-0.70;99.90
10572;DHT22;5334;48.928;12.704;2022-12-16T16:36:45;-0.70;99.90
10572;DHT22;5334;48.928;12.704;2022-12-16T16:39:29;-0.70;99.90
10572;DHT22;5334;48.928;12.704;2022-12-16T16:42:14;-0.70;99.90
10572;DHT22;5334;48.928;12.704;2022-12-16T16:44:59;-0.70;99.90
10572;DHT22;5334;48.928;12.704;2022-12-16T16:47:43;-0.70;99.90
10572;DHT22;5334;48.928;12.704;2022-12-16T16:50:31;-0.70;99.90
10572;DHT22;5334;48.928;12.704;2022-12-16T16:53:19;-0.70;99.90
10572;DHT22;5334;48.928;12.704;2022-12-16T16:56:03;-0.70;99.90
10572;DHT22;5334;48.928;12.704;2022-12-16T16:58:47;-0.70;99.90
10572;DHT22;5334;48.928;12.704;2022-12-16T17:01:32;-0.70;99.90
10572;DHT22;5334;48.928;12.704;2022-12-16T17:04:16;-0.70;99.90
10572;DHT22;5334;48.928;12.704;2022-12-16T17:07:00;-0.70;99.90
10572;DHT22;5334;48.928;12.704;2022-12-16T17:09:44;-0.70;99.90
10572;DHT22;5334;48.928;12.704;2022-12-16T17:12:29;-0.60;99.90
10572;DHT22;5334;48.928;12.704;2022-12-16T17:15:20;-0.60;99.90
10572;DHT22;5334;48.928;12.704;2022-12-16T17:18:04;-0.60;99.90
10572;DHT22;5334;48.928;12.704;2022-12-16T17:20:49;-0.60;99.90
10572;DHT22;5334;48.928;12.704;2022-12-16T17:23:33;-0.60;99.90
10572;DHT22;5334;48.928;12.704;2022-12-16T17:26:17;-0.60;99.90
10572;DHT22;5334;48.928;12.704;2022-12-16T17:29:02;-0.60;99.90
10572;DHT22;5334;48.928;12.704;2022-12-16T17:31:47;-0.70;99.90
10572;DHT22;5334;48.928;12.704;2022-12-16T17:34:30;-0.60;99.90
10572;DHT22;5334;48.928;12.704;2022-12-16T17:37:15;-0.60;99.90
10572;DHT22;5334;48.928;12.704;2022-12-16T17:39:59;-0.60;99.90
10572;DHT22;5334;48.928;12.704;2022-12-16T17:42:47;-0.70;99.90
10572;DHT22;5334;48.928;12.704;2022-12-16T17:45:32;-0.70;99.90
10572;DHT22;5334;48.928;12.704;2022-12-16T17:48:16;-0.70;99.90
10572;DHT22;5334;48.928;12.704;2022-12-16T17:51:04;-0.70;99.90
10572;DHT22;5334;48.928;12.704;2022-12-16T17:53:50;-0.70;99.90
10572;DHT22;5334;48.928;12.704;2022-12-16T17:56:34;-0.70;99.90
10572;DHT22;5334;48.928;12.704;2022-12-16T17:59:18;-0.70;99.90
10572;DHT22;5334;48.928;12.704;2022-12-16T18:02:02;-0.60;99.90
10572;DHT22;5334;48.928;12.704;2022-12-16T18:04:46;-0.60;99.90
10572;DHT22;5334;48.928;12.704;2022-12-16T18:07:30;-0.60;99.90
10572;DHT22;5334;48.928;12.704;2022-12-16T18:10:14;-0.60;99.90
10572;DHT22;5334;48.928;12.704;2022-12-16T18:12:58;-0.70;99.90
10572;DHT22;5334;48.928;12.704;2022-12-16T18:15:49;-0.70;99.90
10572;DHT22;5334;48.928;12.704;2022-12-16T18:18:34;-0.70;99.90
10572;DHT22;5334;48.928;12.704;2022-12-16T18:21:18;-0.60;99.90
10572;DHT22;5334;48.928;12.704;2022-12-16T18:24:05;-0.60;99.90
10572;DHT22;5334;48.928;12.704;2022-12-16T18:26:50;-0.60;99.90
10572;DHT22;5334;48.928;12.704;2022-12-16T18:29:34;-0.60;99.90
10572;DHT22;5334;48.928;12.704;2022-12-16T18:32:18;-0.70;99.90
10572;DHT22;5334;48.928;12.704;2022-12-16T18:35:02;-0.60;99.90
10572;DHT22;5334;48.928;12.704;2022-12-16T18:37:47;-0.60;99.90
10572;DHT22;5334;48.928;12.704;2022-12-16T18:40:31;-0.60;99.90
10572;DHT22;5334;48.928;12.704;2022-12-16T18:43:15;-0.60;99.90
10572;DHT22;5334;48.928;12.704;2022-12-16T18:45:59;-0.70;99.90
10572;DHT22;5334;48.928;12.704;2022-12-16T18:48:43;-0.70;99.90
10572;DHT22;5334;48.928;12.704;2022-12-16T18:51:27;-0.70;99.90
10572;DHT22;5334;48.928;12.704;2022-12-16T18:54:11;-0.70;99.90
10572;DHT22;5334;48.928;12.704;2022-12-16T18:56:55;-0.70;99.90
10572;DHT22;5334;48.928;12.704;2022-12-16T18:59:39;-0.70;99.90
10572;DHT22;5334;48.928;12.704;2022-12-16T19:02:23;-0.70;99.90
10572;DHT22;5334;48.928;12.704;2022-12-16T19:05:07;-0.70;99.90
10572;DHT22;5334;48.928;12.704;2022-12-16T19:07:51;-0.70;99.90
10572;DHT22;5334;48.928;12.704;2022-12-16T19:10:35;-0.70;99.90